• Join FlightAware (Why Join?)
  • Login
  • US Flag 
08:40AM EDT


 

Airport Tracker/Info


-or-


 

Live Flight TrackerFlight Track Log ✈ RPA3228 ✈ 12-May-2013 ✈ KDCA - KBTV

Flight Track Log - Related Links

Times and Time Zones

All times are in EDT time to prevent confusion due to time zone crossing. See the RPA3228 flight status page for this flight to view local times or setup timezone preferences in your user account.

Time Position Orientation Groundspeed Altitude Reporting Facility
EDT Latitude Longitude Course Direction KTS MPH feet Rate Location/Type
10:29AM 38.9888 -76.6337 67° East  Level FlightAware Approximate
10:30AM 39.0402 -76.4994 63° Northeast  Level FlightAware Approximate
10:31AM 39.0951 -76.3669 61° Northeast  Level FlightAware Approximate
10:32AM 39.1353 -76.2314 38° Northeast  Level FlightAware Approximate
10:33AM 39.1626 -76.0913 83° East  Level FlightAware Approximate
10:34AM 39.1781 -75.9424 81° East  Level FlightAware Approximate
10:35AM 39.2223 -75.8121 47° Northeast  Level FlightAware Approximate
10:36AM 39.3071 -75.7096 38° Northeast  Level FlightAware Approximate
10:37AM 39.3920 -75.6078 52° Northeast  Level FlightAware Approximate
10:38AM 39.4709 -75.4970 45° Northeast  Level FlightAware Approximate
10:39AM 39.5546 -75.3918 42° Northeast  Level FlightAware Approximate
10:40AM 39.6405 -75.2895 48° Northeast  Level FlightAware Approximate
10:41AM 39.7179 -75.1762 48° Northeast  Level FlightAware Approximate
10:42AM 39.7952 -75.0627 48° Northeast  Level FlightAware Approximate
10:43AM 39.8724 -74.9488 49° Northeast  Level FlightAware Approximate
10:44AM 39.9520 -74.8379 45° Northeast  Level FlightAware Approximate
10:45AM 40.0333 -74.7301 90° East  Level FlightAware Approximate
10:46AM 40.1060 -74.6152 47° Northeast  Level FlightAware Approximate
10:47AM 40.1855 -74.5037 47° Northeast  Level FlightAware Approximate
10:48AM 40.2746 -74.4056 38° Northeast  Level FlightAware Approximate
10:49AM 40.3658 -74.3102 39° Northeast  Level FlightAware Approximate
10:50AM 40.4569 -74.2147 39° Northeast  Level FlightAware Approximate
10:51AM 40.5480 -74.1188 39° Northeast  Level FlightAware Approximate
10:52AM 40.5779 -73.9712 76° East  Level FlightAware Approximate
10:53AM 40.6062 -73.8222 76° East  Level FlightAware Approximate
10:54AM 40.6898 -73.7667 North  Level FlightAware Approximate
10:55AM 40.8064 -73.7667 North  Level FlightAware Approximate
10:56AM 40.9229 -73.7733 356° North  Level FlightAware Approximate
10:57AM 41.0392 -73.7833 North  Level FlightAware Approximate
10:58AM 41.1558 -73.7836 358° North  Level FlightAware Approximate
10:59AM 41.2724 -73.7891 358° North  Level FlightAware Approximate
11:00AM 41.3889 -73.7947 358° North  Level FlightAware Approximate
11:01AM 41.5054 -73.8006 355° North  Level FlightAware Approximate
11:02AM 41.6216 -73.8135 355° North  Level FlightAware Approximate
11:03AM 41.7381 -73.8127 North  Level FlightAware Approximate
11:04AM 41.8546 -73.8074 North  Level FlightAware Approximate
11:05AM 41.9712 -73.8021 North  Level FlightAware Approximate
11:06AM 42.0878 -73.8000 North  Level FlightAware Approximate
11:07AM 42.2044 -73.8000 North  Level FlightAware Approximate
11:08AM 42.3210 -73.8000 North  Level FlightAware Approximate
11:09AM 42.4376 -73.8000 North  Level FlightAware Approximate
11:10AM 42.5542 -73.8000 North  Level FlightAware Approximate
11:11AM 42.6708 -73.8000 North  Level FlightAware Approximate
11:12AM 42.7852 -73.7793 16° North  Level FlightAware Approximate
11:13AM 42.8814 -73.7408 16° North  Level FlightAware Approximate
11:14AM 42.9769 -73.7032 20° North  Level FlightAware Approximate
11:15AM 43.0740 -73.6699 14° North  Level FlightAware Approximate
11:16AM 43.1713 -73.6374 14° North  Level FlightAware Approximate
11:17AM 43.2687 -73.6049 14° North  Level FlightAware Approximate
11:18AM 43.3636 -73.5631 26° Northeast  Level FlightAware Approximate
11:19AM 43.4590 -73.5222 15° North  Level FlightAware Approximate
11:20AM 43.5558 -73.4866 15° North  Level FlightAware Approximate
11:21AM 43.6526 -73.4509 15° North  Level FlightAware Approximate
11:22AM 43.7491 -73.4137 16° North  Level FlightAware Approximate
11:23AM 43.8453 -73.3752 16° North  Level FlightAware Approximate
11:24AM 43.9426 -73.3452 15° North  Level FlightAware Approximate
11:25AM 44.0396 -73.3099 15° North  Level FlightAware Approximate
11:26AM 44.1360 -73.2723 16° North  Level FlightAware Approximate
11:27AM 44.2323 -73.2337 16° North  Level FlightAware Approximate
11:28AM 44.3285 -73.1953 16° North  Level FlightAware Approximate
11:29AM 44.4254 -73.1603 10° North  Level FlightAware Approximate
11:30AM 44.4667 -73.1500 10° North  Level FlightAware Approximate
11:31AM 44.4719 -73.1533 10° North  Level Estimated